Portada
METAR-TAF:

METAR-TAF

Aeroports :

Şırnak, Turquia

latitud: 37-21-50N, longitud: 42-03-36E, altitud: 621 m

Observació

L'informe es va fer fa 57 minuts, a les 13:50 UTC
Vent 5 kt del Est, variant entre Est/Nord-Est i Sud-Est
Temperatura 36°C
Humitat 17%
Pressió 1003 hPa
Visibilitat 10 km o més
Escasses núvols a una alçada de 4000 ft

METAR: LTCV 161350Z 10005KT 060V140 9999 FEW040 36/07 Q1003

Hora: 17:47 (14:47 UTC)

Pronòstic

L'informe es va fer fa 1 hora i 7 minuts, a les 13:40 UTC
Pronòstic vàlid del 16 a les 15 UTC al 16 a les 24 UTC
Vent 2 kt amb direcció variable
Visibilitat 10 km o més
Escasses núvols a una alçada de 4000 ft
Evolucionant progressivament
l' 16 a les 15 UTC al 16 a les 18 UTC
Visibilitat 10 km o més
sense núvols per sota de 1500 mi sense presència de cumulonimbus.

TAF: LTCV 161340Z 1615/1624 VRB02KT 9999 FEW040 BECMG 1615/1618 CAVOK

Observacions i pronòstics meteorològics de més de 4000 aeroports (METAR i TAF).

Les estacions disponibles són els punts grocs i vermells al mapa.

Posi el ratolí al punt desitjat per veure el nom de l'estació.

Feu clic per veure les observacions i els pronòstics meteorològics.

Per canviar el mapa: feu clic els botons verds amb una creu de color negre per apropar; al botó verd amb un guió per allunyar la imatge; o en les fletxes verdes per a mapes adjacents.


METAR-TAF: